createdAt,value
2019-06-01T00:04:03.586Z,8.10
2019-06-01T00:09:09.146Z,5.37
2019-06-01T00:14:14.502Z,7.70
2019-06-01T00:19:19.966Z,5.60
2019-06-01T00:24:25.539Z,7.30
2019-06-01T00:29:30.866Z,5.50
2019-06-01T00:34:36.403Z,6.70
2019-06-01T00:39:41.789Z,7.83
2019-06-01T00:44:48.501Z,6.70
2019-06-01T00:49:53.818Z,6.43
2019-06-01T00:54:59.076Z,11.20
2019-06-01T01:00:06.510Z,7.90
2019-06-01T01:05:17.341Z,7.07
2019-06-01T01:10:22.954Z,9.43
2019-06-01T01:15:28.346Z,10.60
2019-06-01T01:20:34.177Z,8.70
2019-06-01T01:25:39.540Z,10.23
2019-06-01T01:31:01.688Z,12.07
2019-06-01T01:35:52.566Z,12.40
2019-06-01T01:40:59.458Z,13.37
2019-06-01T01:46:05.358Z,12.47
2019-06-01T01:51:11.700Z,16.13
2019-06-01T01:56:17.163Z,12.87
2019-06-01T02:01:23.268Z,16.83
2019-06-01T02:06:29.295Z,16.03
2019-06-01T02:11:34.863Z,18.98
2019-06-01T02:16:40.229Z,16.90
2019-06-01T02:21:45.548Z,17.73
2019-06-01T02:26:53.030Z,18.53
2019-06-01T02:31:59.162Z,18.67
2019-06-01T02:37:04.700Z,16.63
2019-06-01T02:42:11.868Z,16.63
2019-06-01T02:47:17.399Z,16.53
2019-06-01T02:52:22.906Z,16.90
2019-06-01T02:57:28.151Z,18.70
2019-06-01T03:02:33.779Z,16.20
2019-06-01T03:07:42.919Z,18.57
2019-06-01T03:12:50.568Z,18.30
2019-06-01T03:17:59.410Z,20.87
2019-06-01T03:23:05.818Z,22.07
2019-06-01T03:28:14.044Z,21.03
2019-06-01T03:33:19.444Z,21.40
2019-06-01T03:38:24.904Z,23.97
2019-06-01T03:43:30.272Z,23.13
2019-06-01T03:48:35.830Z,21.40
2019-06-01T03:53:41.185Z,19.20
2019-06-01T03:58:46.749Z,18.17
2019-06-01T04:03:52.107Z,21.37
2019-06-01T04:08:57.423Z,18.10
2019-06-01T04:14:03.414Z,17.37
2019-06-01T04:19:10.032Z,17.57
2019-06-01T04:24:15.498Z,15.08
2019-06-01T04:29:20.735Z,15.47
2019-06-01T04:34:26.008Z,15.10
2019-06-01T04:39:31.371Z,13.83
2019-06-01T04:44:36.841Z,13.67
2019-06-01T04:49:42.134Z,14.23
2019-06-01T04:54:47.382Z,14.85
2019-06-01T04:59:52.634Z,12.63
2019-06-01T05:04:58.169Z,11.30
2019-06-01T05:10:05.171Z,12.20
2019-06-01T05:15:15.975Z,11.07
2019-06-01T05:20:21.937Z,43.33
2019-06-01T05:25:27.317Z,14.90
2019-06-01T05:30:32.559Z,55.53
2019-06-01T05:35:37.853Z,8.53
2019-06-01T05:40:43.281Z,8.03
2019-06-01T05:45:48.606Z,7.47
2019-06-01T05:50:53.892Z,11.60
2019-06-01T05:55:59.321Z,7.67
2019-06-01T06:01:04.792Z,11.73
2019-06-01T06:06:10.088Z,14.50
2019-06-01T06:11:15.349Z,15.53
2019-06-01T06:16:21.273Z,29.57
2019-06-01T06:21:27.891Z,4.83
2019-06-01T06:26:33.080Z,10.23
2019-06-01T06:31:38.586Z,11.00
2019-06-01T06:36:43.729Z,7.10
2019-06-01T06:41:48.864Z,5.97
2019-06-01T06:46:54.009Z,7.70
2019-06-01T06:51:59.388Z,5.97
2019-06-01T06:57:04.596Z,6.63
2019-06-01T07:02:09.948Z,24.57
2019-06-01T07:07:15.380Z,5.00
2019-06-01T07:12:21.226Z,6.00
2019-06-01T07:17:27.775Z,15.80
2019-06-01T07:22:32.846Z,5.13
2019-06-01T07:27:38.041Z,5.47
2019-06-01T07:32:43.226Z,4.37
2019-06-01T07:37:48.538Z,6.27
2019-06-01T07:42:53.805Z,7.47
2019-06-01T07:53:58.114Z,11.57
2019-06-01T07:59:04.470Z,6.23
2019-06-01T08:04:09.860Z,5.93
2019-06-01T08:09:15.025Z,13.23
2019-06-01T08:14:20.462Z,4.97
2019-06-01T08:19:26.157Z,4.03
2019-06-01T08:24:32.409Z,5.80
2019-06-01T08:29:38.044Z,6.13
2019-06-01T08:34:43.615Z,4.97
2019-06-01T08:39:49.027Z,4.67
2019-06-01T08:44:54.382Z,5.60
2019-06-01T08:49:59.917Z,8.13
2019-06-01T08:55:07.797Z,8.97
2019-06-01T09:00:14.191Z,11.53
2019-06-01T09:05:24.292Z,8.20
2019-06-01T09:10:27.541Z,16.77
2019-06-01T09:15:33.725Z,27.27
2019-06-01T09:20:39.159Z,11.73
2019-06-01T09:25:45.137Z,7.97
2019-06-01T09:30:50.774Z,16.53
2019-06-01T09:35:56.568Z,6.83
2019-06-01T09:41:02.044Z,16.37
2019-06-01T09:46:07.448Z,8.97
2019-06-01T09:51:12.919Z,17.60
2019-06-01T09:56:18.371Z,8.97
2019-06-01T10:01:23.633Z,7.43
2019-06-01T10:06:28.854Z,12.20
2019-06-01T10:11:34.353Z,6.13
2019-06-01T10:16:40.031Z,19.70
2019-06-01T10:21:45.250Z,8.80
2019-06-01T10:26:51.136Z,9.00
2019-06-01T10:31:56.344Z,11.13
2019-06-01T10:37:01.656Z,8.87
2019-06-01T10:42:07.128Z,8.73
2019-06-01T10:47:13.508Z,19.97
2019-06-01T10:52:18.967Z,8.63
2019-06-01T10:57:24.090Z,8.67
2019-06-01T11:02:29.394Z,9.90
2019-06-01T11:07:36.760Z,8.97
2019-06-01T11:12:43.263Z,7.80
2019-06-01T11:17:48.640Z,10.40
2019-06-01T11:22:53.733Z,12.37
2019-06-01T11:27:59.109Z,12.87
2019-06-01T11:33:04.416Z,9.47
2019-06-01T11:38:09.665Z,13.30
2019-06-01T11:43:14.801Z,8.27
2019-06-01T11:48:20.356Z,12.23
2019-06-01T11:53:25.825Z,6.37
2019-06-01T11:58:31.090Z,10.93
2019-06-01T12:03:37.556Z,8.43
2019-06-01T12:08:44.075Z,6.33
2019-06-01T12:13:50.037Z,11.63
2019-06-01T12:18:55.378Z,13.30
2019-06-01T12:24:00.460Z,6.73
2019-06-01T12:29:05.892Z,7.57
2019-06-01T12:34:11.147Z,13.23
2019-06-01T12:39:17.460Z,9.27
2019-06-01T12:44:22.730Z,7.90
2019-06-01T12:49:28.855Z,11.23
2019-06-01T12:54:34.161Z,7.53
2019-06-01T12:59:40.976Z,11.23
2019-06-01T13:04:46.865Z,10.07
2019-06-01T13:09:53.006Z,6.43
2019-06-01T13:14:58.405Z,6.03
2019-06-01T13:20:07.470Z,8.80
2019-06-01T13:25:13.951Z,6.53
2019-06-01T13:30:19.450Z,7.50
2019-06-01T13:35:24.586Z,12.60
2019-06-01T13:40:30.027Z,9.03
2019-06-01T13:45:35.263Z,36.77
2019-06-01T13:50:40.384Z,5.70
2019-06-01T13:55:46.098Z,8.47
2019-06-01T14:00:53.116Z,10.80
2019-06-01T14:06:00.972Z,8.03
2019-06-01T14:11:05.639Z,7.80
2019-06-01T14:16:10.796Z,31.07
2019-06-01T14:21:16.003Z,10.20
2019-06-01T14:26:21.334Z,9.70
2019-06-01T14:31:26.527Z,6.50
2019-06-01T14:36:31.936Z,12.37
2019-06-01T14:41:38.785Z,9.10
2019-06-01T14:46:55.024Z,12.45
2019-06-01T14:51:51.570Z,7.53
2019-06-01T14:56:57.950Z,29.92
2019-06-01T15:02:03.869Z,10.43
2019-06-01T15:07:09.273Z,7.73
2019-06-01T15:12:14.975Z,12.53
2019-06-01T15:17:20.768Z,22.70
2019-06-01T15:22:26.366Z,8.10
2019-06-01T15:27:34.232Z,16.90
2019-06-01T15:32:39.993Z,19.37
2019-06-01T15:37:46.030Z,16.23
2019-06-01T15:42:52.250Z,19.30
2019-06-01T15:48:00.568Z,19.27
2019-06-01T15:53:05.887Z,15.67
2019-06-01T15:58:11.177Z,20.07
2019-06-01T16:03:16.544Z,20.80
2019-06-01T16:08:21.901Z,20.17
2019-06-01T16:13:27.358Z,16.73
2019-06-01T16:18:32.616Z,15.60
2019-06-01T16:23:49.302Z,18.00
2019-06-01T16:28:45.283Z,11.37
2019-06-01T16:33:50.714Z,10.33
2019-06-01T16:39:02.732Z,13.20
2019-06-01T16:44:03.777Z,15.33
2019-06-01T16:49:09.195Z,12.63
2019-06-01T16:54:14.757Z,10.43
2019-06-01T16:59:20.108Z,12.30
2019-06-01T17:04:25.272Z,14.07
2019-06-01T17:09:30.471Z,10.80
2019-06-01T17:14:35.587Z,12.00
2019-06-01T17:19:41.010Z,10.83
2019-06-01T17:24:46.047Z,12.23
2019-06-01T17:29:51.293Z,12.53
2019-06-01T17:34:56.451Z,11.67
2019-06-01T17:40:02.469Z,11.17
2019-06-01T17:45:09.609Z,11.63
2019-06-01T17:50:18.280Z,13.20
2019-06-01T17:55:38.600Z,15.30
2019-06-01T18:00:44.067Z,14.30
2019-06-01T18:05:49.531Z,17.50
2019-06-01T18:10:55.203Z,13.00
2019-06-01T18:16:03.024Z,13.73
2019-06-01T18:21:10.380Z,19.90
2019-06-01T18:26:16.367Z,17.73
2019-06-01T18:31:22.505Z,16.03
2019-06-01T18:36:27.793Z,17.47
2019-06-01T18:41:32.850Z,19.37
2019-06-01T18:46:38.375Z,19.67
2019-06-01T18:51:43.892Z,18.60
2019-06-01T18:56:49.480Z,20.87
2019-06-01T19:01:54.905Z,16.97
2019-06-01T19:07:00.172Z,20.90
2019-06-01T19:12:06.682Z,20.63
2019-06-01T19:17:12.358Z,19.17
2019-06-01T19:22:17.900Z,26.77
2019-06-01T19:27:23.251Z,24.20
2019-06-01T19:32:28.720Z,24.63
2019-06-01T19:37:38.656Z,25.03
2019-06-01T19:42:43.681Z,22.90
2019-06-01T19:47:49.280Z,25.27
2019-06-01T19:52:54.966Z,25.30
2019-06-01T19:58:00.524Z,26.27
2019-06-01T20:03:06.719Z,28.13
2019-06-01T20:08:12.213Z,50.93
2019-06-01T20:13:17.457Z,26.67
2019-06-01T20:18:23.038Z,27.77
2019-06-01T20:23:28.409Z,27.33
2019-06-01T20:28:34.015Z,25.43
2019-06-01T20:33:39.351Z,28.27
2019-06-01T20:38:44.733Z,26.10
2019-06-01T20:43:50.094Z,25.43
2019-06-01T20:48:55.653Z,24.47
2019-06-01T20:54:00.922Z,31.10
2019-06-01T20:59:06.682Z,31.77
2019-06-01T21:04:11.898Z,33.80
2019-06-01T21:09:17.817Z,31.97
2019-06-01T21:14:23.393Z,29.33
2019-06-01T21:19:28.833Z,34.93
2019-06-01T21:24:34.137Z,34.07
2019-06-01T21:29:39.451Z,32.83
2019-06-01T21:34:44.804Z,34.00
2019-06-01T21:39:50.267Z,31.63
2019-06-01T21:44:55.546Z,33.27
2019-06-01T21:50:00.823Z,35.73
2019-06-01T21:55:09.324Z,33.53
2019-06-01T22:00:28.537Z,33.60
2019-06-01T22:05:35.348Z,33.47
2019-06-01T22:10:40.739Z,37.50
2019-06-01T22:15:45.965Z,37.73
2019-06-01T22:20:52.366Z,39.03
2019-06-01T22:25:57.847Z,35.17
2019-06-01T22:31:03.299Z,34.63
2019-06-01T22:36:08.652Z,34.73
2019-06-01T22:41:13.921Z,36.27
2019-06-01T22:46:20.398Z,36.27
2019-06-01T22:51:27.053Z,31.63
2019-06-01T22:56:32.867Z,32.67
2019-06-01T23:01:39.853Z,33.33
2019-06-01T23:06:46.240Z,40.50
2019-06-01T23:11:51.491Z,31.90
2019-06-01T23:16:56.960Z,36.13
2019-06-01T23:22:02.323Z,30.47
2019-06-01T23:27:07.996Z,29.80
2019-06-01T23:32:13.342Z,29.83
2019-06-01T23:37:18.712Z,27.53
2019-06-01T23:42:24.577Z,27.13
2019-06-01T23:47:31.272Z,29.63
2019-06-01T23:52:37.034Z,25.83
2019-06-01T23:57:42.702Z,31.10
